Latest Coastal Weather Observations for Port Lincoln Airport

IDS60701

Issued at 4:31 pm CDT Monday 6 December 2021 (issued every 10 minutes, with the page automatically refreshed every 10 minutes)

About coastal observations | Map of coastal stations | Coastal observations for SA | Marine services | Other Formats
Station Details ID: 018192 Name: PORT LINCOLN AWS Lat: -34.60 Lon: 135.88 Height: 8.5 m
Data from the previous 72 hours. | See also: Recent months at Port Lincoln Airport
Date/Time
CDT
Wind Sea
Height
m
Swell Vis
km
Cloud Weather Temp
°C
Press
MSL
hPa
Rain since
9am
mm
Dir  Spd
kts
Gust
kts
Height
m
Period
s
Dir
06/04:30pm SW 16 23 - - - - 10 Clear - 21.2 1013.3 0.0
06/04:00pm SW 14 21 - - - - 10 Partly cloudy - 21.4 1013.2 0.0
06/03:30pm SW 13 22 - - - - 10 Partly cloudy - 21.8 1013.2 0.0
06/03:00pm SW 14 19 - - - - 10 Mostly clear - 21.9 1013.2 0.0
06/02:30pm SW 16 22 - - - - 10 Partly cloudy - 23.1 1013.1 0.0
06/02:23pm SW 15 25 - - - - 10 Partly cloudy - 23.1 1013.1 0.0
06/02:00pm SW 11 16 - - - - 10 - - 23.8 1012.9 0.0
06/01:30pm SSE 17 22 - - - - 10 Partly cloudy - 22.0 1013.0 0.0
06/01:00pm S 14 21 - - - - 10 Partly cloudy - 22.4 1013.2 0.0
06/12:30pm SE 15 19 - - - - 10 Partly cloudy - 20.9 1013.5 0.0
06/12:00pm SSE 15 19 - - - - 10 Partly cloudy - 20.7 1013.6 0.0
06/11:30am SSE 13 19 - - - - 10 Partly cloudy - 21.1 1014.0 0.0
06/11:00am SSE 7 10 - - - - 10 - - 20.8 1014.0 0.0
06/10:30am ENE 7 10 - - - - 10 - - 19.5 1013.9 0.0
06/10:00am SE 6 8 - - - - 10 - - 19.1 1014.0 0.0
06/09:30am SSE 5 8 - - - - 10 - - 18.6 1014.4 0.0
06/09:00am SSE 5 9 - - - - 10 Mostly clear - 17.7 1014.6 0.0
06/08:30am ESE 5 7 - - - - 10 - - 17.4 1014.0 0.0
06/08:19am SSE 6 8 - - - - 10 Partly cloudy - 17.2 1014.0 0.0
06/08:00am SSE 7 10 - - - - 10 Partly cloudy - 16.3 1013.9 0.0
06/07:36am ESE 5 7 - - - - 10 Partly cloudy - 16.8 1014.0 0.0
06/07:30am SE 5 7 - - - - 10 Partly cloudy - 16.3 1014.0 0.0
06/07:00am SE 4 5 - - - - 10 - - 14.9 1013.4 0.0
06/06:30am ESE 5 6 - - - - 10 Partly cloudy - 13.2 1013.2 0.0
06/06:00am SE 6 8 - - - - 10 Mostly cloudy - 13.8 1013.2 0.0
06/05:31am SE 6 7 - - - - 10 Partly cloudy - 12.9 1013.3 0.0
06/05:30am SE 6 7 - - - - 10 Partly cloudy - 12.9 1013.3 0.0
06/05:19am SE 5 7 - - - - 10 Partly cloudy - 13.0 1013.0 0.0
06/05:09am ESE 5 6 - - - - 10 Partly cloudy - 12.9 1013.0 0.0
06/05:00am SE 4 6 - - - - 10 Partly cloudy - 13.1 1013.0 0.0
06/04:30am SSE 7 8 - - - - 10 - - 13.4 1013.0 0.0
06/04:00am SSE 7 9 - - - - 10 Partly cloudy - 13.8 1013.2 0.0
06/03:30am SSE 8 9 - - - - 10 Partly cloudy - 14.1 1013.5 0.0
06/03:00am SE 6 7 - - - - 10 Partly cloudy - 13.4 1014.0 0.0
06/02:30am ESE 7 8 - - - - 10 Cloudy - 14.6 1014.1 0.0
06/02:00am ESE 7 8 - - - - 10 Cloudy - 14.7 1014.6 0.0
06/01:30am SE 5 8 - - - - 10 Partly cloudy - 13.2 1014.9 0.0
06/01:00am CALM 0 3 - - - - 10 - - 11.8 1015.1 0.0
06/12:30am WSW 2 6 - - - - 10 Partly cloudy - 12.5 1015.2 0.0
06/12:00am SW 6 7 - - - - 10 - - 13.1 1015.6 0.0
 
Date/Time
CDT
Wind Sea
Height
m
Swell Vis
km
Cloud Weather Temp
°C
Press
MSL
hPa
Rain since
9am
mm
Dir  Spd
kts
Gust
kts
Height
m
Period
s
Dir
05/11:30pm SW 5 7 - - - - 10 - - 13.8 1015.5 0.0
05/11:00pm S 9 11 - - - - 10 - - 15.3 1015.7 0.0
05/10:30pm SSE 9 12 - - - - 10 - - 15.1 1015.8 0.0
05/10:00pm SSE 11 13 - - - - 10 - - 15.3 1015.8 0.0
05/09:30pm SSE 11 14 - - - - 10 - - 15.5 1015.8 0.0
05/09:00pm SSE 12 15 - - - - 10 - - 15.9 1015.7 0.0
05/08:30pm SSE 13 17 - - - - 10 - - 16.2 1015.9 0.0
05/08:00pm SSE 13 16 - - - - 10 - - 17.1 1015.7 0.0
05/07:30pm SSE 14 16 - - - - 10 - - 17.9 1015.6 0.0
05/07:00pm SSE 13 17 - - - - 10 - - 19.0 1015.5 0.0
05/06:30pm SE 15 17 - - - - 10 - - 19.0 1015.4 0.0
05/06:00pm SE 15 19 - - - - 10 Partly cloudy - 19.8 1015.6 0.0
05/05:30pm SE 13 16 - - - - 10 - - 19.4 1015.9 0.0
05/05:00pm SE 15 17 - - - - 10 - - 19.1 1016.2 0.0
05/04:30pm SSE 14 17 - - - - 10 - - 19.4 1016.3 0.0
05/04:00pm ESE 10 13 - - - - 10 - - 19.8 1016.7 0.0
05/03:30pm SE 9 14 - - - - 10 - - 19.3 1017.2 0.0
05/03:00pm ESE 10 16 - - - - 10 Mostly clear - 20.7 1017.4 0.0
05/02:30pm SSE 10 14 - - - - 10 - - 19.9 1017.7 0.0
05/02:00pm SSE 10 14 - - - - 10 - - 20.0 1018.0 0.0
05/01:30pm SSE 12 15 - - - - 10 Partly cloudy - 19.8 1018.4 0.0
05/01:00pm E 9 14 - - - - 10 Partly cloudy - 19.7 1019.1 0.0
05/12:30pm ENE 6 12 - - - - 10 Partly cloudy - 19.2 1019.4 0.0
05/12:00pm ENE 9 13 - - - - 10 Mostly clear - 19.0 1019.8 0.0
05/11:30am E 8 12 - - - - 10 Partly cloudy - 18.2 1019.9 0.0
05/11:00am E 10 14 - - - - 10 Partly cloudy - 18.0 1019.9 0.0
05/10:30am E 11 15 - - - - 10 Partly cloudy - 18.2 1019.9 0.0
05/10:00am E 11 15 - - - - 10 Cloudy - 17.5 1020.3 0.0
05/09:30am E 13 16 - - - - 10 Partly cloudy - 16.7 1020.8 0.0
05/09:00am ESE 13 16 - - - - 10 Cloudy - 16.6 1020.9 0.0
05/08:30am ESE 13 19 - - - - 10 Cloudy - 17.0 1020.8 0.0
05/08:00am ESE 13 16 - - - - 10 Cloudy - 16.5 1021.1 0.0
05/07:30am ESE 12 15 - - - - 10 Cloudy - 16.0 1021.0 0.0
05/07:00am ESE 13 15 - - - - 10 Cloudy - 15.7 1021.1 0.0
05/06:30am ESE 12 15 - - - - 10 Cloudy - 15.3 1020.7 0.0
05/06:00am ESE 11 14 - - - - 10 Mostly cloudy - 15.3 1020.4 0.0
05/05:30am ESE 11 14 - - - - 10 Cloudy - 15.0 1020.3 0.0
05/05:00am ESE 12 15 - - - - 10 Cloudy - 15.3 1020.2 0.0
05/04:30am ESE 13 16 - - - - 10 Cloudy - 15.4 1020.0 0.0
05/04:00am ESE 14 18 - - - - 10 Cloudy - 15.5 1019.9 0.0
05/03:30am ESE 14 20 - - - - 10 Cloudy - 15.4 1020.2 0.0
05/03:00am ESE 13 16 - - - - 10 Cloudy - 15.6 1020.4 0.0
05/02:30am SE 12 16 - - - - 10 Partly cloudy - 15.6 1020.8 0.0
05/02:00am SE 13 18 - - - - 10 Cloudy - 15.7 1020.9 0.0
05/01:30am SE 14 18 - - - - 10 Partly cloudy - 15.5 1020.9 0.0
05/01:00am SSE 13 17 - - - - 10 Partly cloudy - 14.9 1021.4 0.0
05/12:30am SSE 13 16 - - - - 10 - - 14.7 1021.7 0.0
05/12:00am SSE 12 15 - - - - 10 - - 14.5 1021.9 0.0
 
Date/Time
CDT
Wind Sea
Height
m
Swell Vis
km
Cloud Weather Temp
°C
Press
MSL
hPa
Rain since
9am
mm
Dir  Spd
kts
Gust
kts
Height
m
Period
s
Dir
04/11:30pm SSE 10 13 - - - - 10 - - 14.3 1022.3 0.0
04/11:00pm SSE 11 14 - - - - 10 - - 14.5 1022.4 0.0
04/10:30pm SSE 13 16 - - - - 10 - - 14.7 1022.4 0.0
04/10:00pm SSE 12 15 - - - - 10 - - 14.7 1022.4 0.0
04/09:30pm SSE 11 13 - - - - 10 - - 14.9 1022.8 0.0
04/09:00pm SSE 11 14 - - - - 10 - - 15.1 1022.7 0.0
04/08:30pm SE 11 14 - - - - 10 - - 15.4 1022.4 0.0
04/08:00pm SE 12 15 - - - - 10 - - 16.4 1022.3 0.0
04/07:30pm SE 12 14 - - - - 10 - - 17.4 1022.1 0.0
04/07:00pm SE 15 17 - - - - 10 - - 17.9 1021.8 0.0
04/06:30pm SE 13 16 - - - - 10 - - 18.3 1021.6 0.0
04/06:00pm SE 14 17 - - - - 10 - - 19.0 1021.6 0.0
04/05:30pm SE 15 18 - - - - 10 - - 18.8 1021.7 0.0
04/05:00pm SE 16 19 - - - - 10 - - 19.3 1021.9 0.0
04/04:30pm SE 14 18 - - - - 10 - - 18.7 1022.5 0.0
04/04:00pm SE 14 18 - - - - 10 - - 20.3 1022.7 0.0
04/03:30pm ESE 14 22 - - - - 10 - - 19.5 1023.0 0.0
04/03:00pm ESE 13 19 - - - - 10 - - 20.4 1023.4 0.0
04/02:30pm ESE 16 20 - - - - 10 - - 19.3 1023.2 0.0
04/02:00pm ESE 13 17 - - - - 10 - - 19.7 1023.5 0.0
04/01:30pm SE 13 16 - - - - 10 Partly cloudy - 19.9 1024.0 0.0
04/01:00pm SE 10 15 - - - - 10 Cloudy - 18.5 1024.4 0.0
04/12:30pm SE 12 17 - - - - 10 Cloudy - 18.4 1024.5 0.0
04/12:00pm SE 11 16 - - - - 10 Mostly cloudy - 18.5 1024.9 0.0
04/11:30am SE 9 14 - - - - 10 Cloudy - 19.7 1024.7 0.0
04/11:00am SSE 9 14 - - - - 10 Partly cloudy - 17.7 1025.0 0.0
04/10:30am SE 11 16 - - - - 10 Partly cloudy - 17.7 1024.5 0.0
04/10:00am SE 11 15 - - - - 10 Cloudy - 18.1 1024.7 0.0
04/09:30am SE 11 15 - - - - 10 Partly cloudy - 17.7 1024.4 0.0
04/09:00am SE 11 14 - - - - 10 Mostly clear - 17.2 1024.1 0.0
04/08:30am SSE 11 14 - - - - 10 Partly cloudy - 16.2 1024.1 0.0
04/08:00am SSE 11 17 - - - - 10 Cloudy - 15.8 1023.9 0.0
04/07:30am SSE 12 16 - - - - 10 Cloudy - 15.2 1024.0 0.0
04/07:00am SSE 10 15 - - - - 10 Cloudy - 14.7 1023.6 0.0
04/06:30am SSE 11 15 - - - - 10 Partly cloudy - 14.1 1023.3 0.0
04/06:00am SSE 12 15 - - - - 10 Partly cloudy - 13.6 1022.9 0.0
04/05:30am SSE 12 15 - - - - 10 Cloudy - 13.8 1022.6 0.0
04/05:00am SSE 10 14 - - - - 10 Cloudy - 13.7 1022.8 0.0
04/04:30am SSE 12 16 - - - - 10 Cloudy - 14.0 1022.7 0.0
04/04:00am SSE 11 14 - - - - 10 Cloudy - 13.9 1022.5 0.0
04/03:30am SSE 10 16 - - - - 10 Cloudy - 14.1 1022.3 0.0
04/03:00am SSE 10 14 - - - - 10 Partly cloudy - 13.7 1022.3 0.0
04/02:30am SSE 11 15 - - - - 10 - - 13.3 1022.3 0.0
04/02:00am SSE 11 14 - - - - 10 - - 13.5 1022.4 0.0
04/01:30am SSE 12 16 - - - - 10 Partly cloudy - 13.7 1022.5 0.0
04/01:00am SSE 13 16 - - - - 10 - - 13.7 1022.6 0.0
04/12:30am SSE 15 18 - - - - 10 - - 13.9 1022.8 0.0
04/12:00am SSE 13 17 - - - - 10 - - 13.7 1023.3 0.0
 
Date/Time
CDT
Wind Sea
Height
m
Swell Vis
km
Cloud Weather Temp
°C
Press
MSL
hPa
Rain since
9am
mm
Dir  Spd
kts
Gust
kts
Height
m
Period
s
Dir
03/11:30pm SSE 13 16 - - - - 10 - - 13.8 1023.4 0.0
03/11:00pm SSE 14 19 - - - - 10 - - 14.0 1023.2 0.0
03/10:30pm SSE 15 18 - - - - 10 Partly cloudy - 14.2 1022.8 0.0
03/10:00pm SSE 11 15 - - - - 10 Partly cloudy - 14.0 1022.7 0.0
03/09:30pm SSE 12 16 - - - - 10 - - 14.3 1022.4 0.0
03/09:00pm SSE 13 16 - - - - 10 Mostly clear - 14.7 1022.3 0.0
03/08:30pm S 13 17 - - - - 10 - - 15.3 1022.2 0.0
03/08:00pm S 12 16 - - - - 10 - - 15.9 1022.0 0.0
03/07:30pm S 15 19 - - - - 10 - - 16.4 1021.7 0.0
03/07:00pm S 16 20 - - - - 10 - - 17.0 1021.5 0.0
03/06:30pm S 14 17 - - - - 10 - - 17.6 1021.4 0.0
03/06:00pm S 12 16 - - - - 10 Mostly cloudy - 18.0 1021.4 0.0
03/05:30pm SSE 11 15 - - - - 10 - - 18.2 1021.8 0.0
03/05:00pm S 15 18 - - - - 10 Cloudy - 17.3 1021.9 0.0

Other formats

Comma delimited format used in spreadsheet applications
http://www.bom.gov.au/fwo/IDS60701/IDS60701.95661.axf

JavaScript Object Notation format (JSON) in row-major order
http://www.bom.gov.au/fwo/IDS60701/IDS60701.95661.json

Data quality

Most of these data are generated automatically and are frequently updated. Quality checks on data are not normally performed. It is possible for incorrect values to appear. Refer to information at About Latest Weather Observations and please check the disclaimer before using these data.